LNI256 VCBI-WIMM
Flight info
| Callsign | LNI256 |
|---|---|
| Flight time | 2h 51m |
| Altitude | 39000 |
| Route | DUDAL1D VEVET P570 MABIX DCT INANG |
| Aircraft | A339/H-SADE1E2E3GHIJ3J5M1P2RWXY/LB2D1 |
Departure
| Time | 2026-05-07 10:00 |
|---|---|
| Airport | Bandaranaike International Colombo Airport (VCBI) |
Arrival
| Time | 2026-05-07 12:52 |
|---|---|
| Airport | Kualanamu International Airport (WIMM) |
| Time | Latitude | Longitude | Altitude | Speed | Heading |
|---|---|---|---|---|---|
| 2026-05-07 09:55 | 7.18123 | 79.88613 | 55 ft | 13 kts | 38° |
| 2026-05-07 09:55 | 7.18195 | 79.88670 | 56 ft | 13 kts | 38° |
| 2026-05-07 09:56 | 7.18274 | 79.88731 | 55 ft | 14 kts | 38° |
| 2026-05-07 09:56 | 7.18356 | 79.88794 | 55 ft | 15 kts | 38° |
| 2026-05-07 09:56 | 7.18442 | 79.88860 | 55 ft | 15 kts | 38° |
| 2026-05-07 09:56 | 7.18530 | 79.88929 | 56 ft | 16 kts | 38° |
| 2026-05-07 09:57 | 7.18632 | 79.89008 | 54 ft | 19 kts | 38° |
| 2026-05-07 09:57 | 7.18745 | 79.89095 | 52 ft | 20 kts | 37° |
| 2026-05-07 09:57 | 7.18859 | 79.89185 | 50 ft | 21 kts | 38° |
| 2026-05-07 09:57 | 7.18976 | 79.89275 | 50 ft | 20 kts | 38° |
| 2026-05-07 09:58 | 7.19092 | 79.89366 | 49 ft | 21 kts | 37° |
| 2026-05-07 09:58 | 7.19192 | 79.89422 | 48 ft | 11 kts | 343° |
| 2026-05-07 09:58 | 7.19249 | 79.89374 | 49 ft | 10 kts | 312° |
| 2026-05-07 09:58 | 7.19278 | 79.89317 | 50 ft | 8 kts | 275° |
| 2026-05-07 09:59 | 7.19256 | 79.89271 | 51 ft | 9 kts | 227° |
| 2026-05-07 09:59 | 7.19138 | 79.89174 | 53 ft | 47 kts | 218° |
| 2026-05-07 09:59 | 7.18698 | 79.88832 | 54 ft | 108 kts | 219° |
| 2026-05-07 09:59 | 7.17963 | 79.88261 | 52 ft | 158 kts | 218° |
| 2026-05-07 10:00 | 7.17016 | 79.87532 | 406 ft | 171 kts | 217° |
| 2026-05-07 10:00 | 7.16070 | 79.86874 | 1059 ft | 164 kts | 202° |
| 2026-05-07 10:00 | 7.14970 | 79.86852 | 1603 ft | 162 kts | 156° |
| 2026-05-07 10:00 | 7.14062 | 79.87479 | 2026 ft | 159 kts | 143° |
| 2026-05-07 10:01 | 7.13140 | 79.88153 | 2230 ft | 169 kts | 149° |
| 2026-05-07 10:01 | 7.12101 | 79.88779 | 2435 ft | 179 kts | 152° |
| 2026-05-07 10:01 | 7.10966 | 79.89394 | 2677 ft | 192 kts | 153° |
| 2026-05-07 10:01 | 7.09720 | 79.90041 | 2932 ft | 207 kts | 154° |
| 2026-05-07 10:02 | 7.08406 | 79.90767 | 3197 ft | 223 kts | 141° |
| 2026-05-07 10:02 | 7.07441 | 79.92039 | 3478 ft | 240 kts | 110° |
| 2026-05-07 10:02 | 7.06943 | 79.93687 | 3790 ft | 256 kts | 105° |
| 2026-05-07 10:02 | 7.06455 | 79.95488 | 4151 ft | 273 kts | 105° |
| 2026-05-07 10:03 | 7.05947 | 79.97337 | 4775 ft | 277 kts | 105° |
| 2026-05-07 10:03 | 7.05427 | 79.99187 | 5480 ft | 279 kts | 105° |
| 2026-05-07 10:03 | 7.04895 | 80.01054 | 6188 ft | 280 kts | 105° |
| 2026-05-07 10:03 | 7.04350 | 80.02953 | 6864 ft | 283 kts | 105° |
| 2026-05-07 10:04 | 7.03805 | 80.04847 | 7494 ft | 287 kts | 105° |
| 2026-05-07 10:04 | 7.03243 | 80.06798 | 8134 ft | 290 kts | 105° |
| 2026-05-07 10:04 | 7.02677 | 80.08755 | 8757 ft | 294 kts | 106° |
| 2026-05-07 10:04 | 7.02111 | 80.10709 | 9373 ft | 297 kts | 106° |
| 2026-05-07 10:05 | 7.01527 | 80.12721 | 9991 ft | 300 kts | 105° |
| 2026-05-07 10:05 | 7.00933 | 80.14767 | 10371 ft | 313 kts | 105° |
| 2026-05-07 10:05 | 7.00304 | 80.16937 | 10669 ft | 329 kts | 105° |
| 2026-05-07 10:05 | 6.99663 | 80.19146 | 11166 ft | 336 kts | 105° |
| 2026-05-07 10:06 | 6.99039 | 80.21433 | 11768 ft | 339 kts | 103° |
| 2026-05-07 10:06 | 6.98465 | 80.23739 | 12410 ft | 341 kts | 103° |
| 2026-05-07 10:06 | 6.97892 | 80.26067 | 13016 ft | 344 kts | 103° |
| 2026-05-07 10:06 | 6.97317 | 80.28400 | 13639 ft | 346 kts | 103° |
| 2026-05-07 10:07 | 6.96737 | 80.30753 | 14237 ft | 349 kts | 103° |
| 2026-05-07 10:07 | 6.96152 | 80.33113 | 14839 ft | 351 kts | 103° |
| 2026-05-07 10:07 | 6.95559 | 80.35516 | 15433 ft | 354 kts | 103° |
| 2026-05-07 10:07 | 6.94968 | 80.37904 | 16019 ft | 356 kts | 103° |
| 2026-05-07 10:08 | 6.94375 | 80.40306 | 16602 ft | 358 kts | 103° |
| 2026-05-07 10:08 | 6.93767 | 80.42760 | 17160 ft | 361 kts | 103° |
| 2026-05-07 10:08 | 6.93165 | 80.45198 | 17707 ft | 363 kts | 103° |
| 2026-05-07 10:08 | 6.92555 | 80.47661 | 18238 ft | 366 kts | 103° |
| 2026-05-07 10:09 | 6.91941 | 80.50149 | 18745 ft | 369 kts | 103° |
| 2026-05-07 10:09 | 6.91322 | 80.52650 | 19267 ft | 372 kts | 104° |
| 2026-05-07 10:09 | 6.90693 | 80.55187 | 19775 ft | 374 kts | 104° |
| 2026-05-07 10:09 | 6.90059 | 80.57740 | 20249 ft | 377 kts | 104° |
| 2026-05-07 10:10 | 6.89423 | 80.60303 | 20725 ft | 380 kts | 104° |
| 2026-05-07 10:10 | 6.88788 | 80.62861 | 21183 ft | 382 kts | 104° |
| 2026-05-07 10:10 | 6.88138 | 80.65479 | 21627 ft | 384 kts | 104° |
| 2026-05-07 10:10 | 6.87493 | 80.68076 | 22052 ft | 387 kts | 104° |
| 2026-05-07 10:11 | 6.86837 | 80.70718 | 22494 ft | 389 kts | 104° |
| 2026-05-07 10:11 | 6.86179 | 80.73369 | 22934 ft | 392 kts | 104° |
| 2026-05-07 10:11 | 6.85516 | 80.76035 | 23357 ft | 394 kts | 104° |
| 2026-05-07 10:11 | 6.84856 | 80.78689 | 23767 ft | 397 kts | 104° |
| 2026-05-07 10:12 | 6.84180 | 80.81411 | 24208 ft | 399 kts | 104° |
| 2026-05-07 10:12 | 6.83509 | 80.84106 | 24631 ft | 401 kts | 104° |
| 2026-05-07 10:12 | 6.82834 | 80.86820 | 25047 ft | 402 kts | 104° |
| 2026-05-07 10:12 | 6.82153 | 80.89559 | 25479 ft | 404 kts | 104° |
| 2026-05-07 10:13 | 6.81472 | 80.92293 | 25885 ft | 405 kts | 104° |
| 2026-05-07 10:13 | 6.80787 | 80.95050 | 26274 ft | 407 kts | 104° |
| 2026-05-07 10:13 | 6.80101 | 80.97810 | 26632 ft | 410 kts | 104° |
| 2026-05-07 10:13 | 6.79410 | 81.00590 | 27001 ft | 412 kts | 104° |
| 2026-05-07 10:14 | 6.78720 | 81.03364 | 27356 ft | 414 kts | 104° |
| 2026-05-07 10:14 | 6.78021 | 81.06175 | 27722 ft | 415 kts | 104° |
| 2026-05-07 10:14 | 6.77320 | 81.08989 | 28055 ft | 418 kts | 104° |
| 2026-05-07 10:14 | 6.76627 | 81.11856 | 28269 ft | 423 kts | 102° |
| 2026-05-07 10:15 | 6.76087 | 81.14794 | 28489 ft | 428 kts | 99° |
| 2026-05-07 10:15 | 6.75739 | 81.17797 | 28822 ft | 431 kts | 95° |
| 2026-05-07 10:15 | 6.75589 | 81.20811 | 29153 ft | 433 kts | 92° |
| 2026-05-07 10:15 | 6.75541 | 81.23819 | 29488 ft | 435 kts | 91° |
| 2026-05-07 10:16 | 6.75504 | 81.26904 | 29807 ft | 437 kts | 91° |
| 2026-05-07 10:16 | 6.75468 | 81.29975 | 30110 ft | 439 kts | 91° |
| 2026-05-07 10:16 | 6.75430 | 81.33058 | 30407 ft | 442 kts | 91° |
| 2026-05-07 10:16 | 6.75391 | 81.36124 | 30698 ft | 444 kts | 91° |
| 2026-05-07 10:17 | 6.75350 | 81.39269 | 30994 ft | 446 kts | 91° |
| 2026-05-07 10:17 | 6.75309 | 81.42380 | 31284 ft | 448 kts | 91° |
| 2026-05-07 10:17 | 6.75238 | 81.45526 | 31572 ft | 450 kts | 93° |
| 2026-05-07 10:17 | 6.75017 | 81.48659 | 31852 ft | 452 kts | 96° |
| 2026-05-07 10:18 | 6.74631 | 81.51796 | 32144 ft | 454 kts | 99° |
| 2026-05-07 10:18 | 6.74081 | 81.54894 | 32433 ft | 455 kts | 102° |
| 2026-05-07 10:18 | 6.73365 | 81.57997 | 32722 ft | 458 kts | 104° |
| 2026-05-07 10:18 | 6.72587 | 81.61114 | 33025 ft | 460 kts | 104° |
| 2026-05-07 10:19 | 6.71809 | 81.64210 | 33417 ft | 459 kts | 104° |
| 2026-05-07 10:19 | 6.71026 | 81.67319 | 33910 ft | 458 kts | 104° |
| 2026-05-07 10:19 | 6.70248 | 81.70414 | 34461 ft | 454 kts | 104° |
| 2026-05-07 10:19 | 6.69482 | 81.73468 | 34986 ft | 452 kts | 104° |
| 2026-05-07 10:20 | 6.68717 | 81.76515 | 35475 ft | 449 kts | 103° |
| 2026-05-07 10:20 | 6.67961 | 81.79531 | 35904 ft | 448 kts | 103° |
| 2026-05-07 10:20 | 6.67197 | 81.82576 | 36302 ft | 447 kts | 103° |
| 2026-05-07 10:20 | 6.66437 | 81.85606 | 36679 ft | 446 kts | 103° |
| 2026-05-07 10:21 | 6.65685 | 81.88605 | 37041 ft | 445 kts | 103° |
| 2026-05-07 10:21 | 6.64931 | 81.91614 | 37358 ft | 445 kts | 103° |
| 2026-05-07 10:21 | 6.64177 | 81.94620 | 37600 ft | 446 kts | 103° |
| 2026-05-07 10:21 | 6.63420 | 81.97636 | 37824 ft | 447 kts | 103° |
| 2026-05-07 10:22 | 6.62659 | 82.00665 | 38037 ft | 448 kts | 103° |
| 2026-05-07 10:22 | 6.61891 | 82.03713 | 38232 ft | 449 kts | 103° |
| 2026-05-07 10:22 | 6.61120 | 82.06769 | 38447 ft | 450 kts | 103° |
| 2026-05-07 10:22 | 6.60356 | 82.09798 | 38657 ft | 452 kts | 103° |
| 2026-05-07 10:23 | 6.59584 | 82.12857 | 38741 ft | 453 kts | 103° |
| 2026-05-07 10:23 | 6.58033 | 82.19001 | 38750 ft | 454 kts | 103° |
| 2026-05-07 10:24 | 6.56487 | 82.25124 | 38749 ft | 454 kts | 103° |
| 2026-05-07 10:24 | 6.54934 | 82.31267 | 38749 ft | 454 kts | 103° |
| 2026-05-07 10:25 | 6.53375 | 82.37435 | 38747 ft | 453 kts | 103° |
| 2026-05-07 10:25 | 6.51830 | 82.43549 | 38747 ft | 453 kts | 103° |
| 2026-05-07 10:26 | 6.50283 | 82.49667 | 38745 ft | 453 kts | 103° |
| 2026-05-07 10:26 | 6.48738 | 82.55770 | 38747 ft | 453 kts | 103° |
| 2026-05-07 10:27 | 6.47184 | 82.61901 | 38746 ft | 453 kts | 103° |
| 2026-05-07 10:27 | 6.45628 | 82.68044 | 38747 ft | 453 kts | 103° |
| 2026-05-07 10:28 | 6.44083 | 82.74136 | 38743 ft | 452 kts | 103° |
| 2026-05-07 10:28 | 6.42529 | 82.80264 | 38744 ft | 452 kts | 103° |
| 2026-05-07 10:29 | 6.40978 | 82.86374 | 38747 ft | 452 kts | 103° |
| 2026-05-07 10:29 | 6.39425 | 82.92491 | 38747 ft | 452 kts | 103° |
| 2026-05-07 10:30 | 6.37103 | 83.01631 | 38750 ft | 452 kts | 103° |
| 2026-05-07 10:30 | 6.35550 | 83.07739 | 38757 ft | 452 kts | 103° |
| 2026-05-07 10:31 | 6.33992 | 83.13863 | 38767 ft | 452 kts | 104° |
| 2026-05-07 10:31 | 6.32450 | 83.19924 | 38766 ft | 451 kts | 104° |
| 2026-05-07 10:32 | 6.30895 | 83.26029 | 38769 ft | 451 kts | 104° |
| 2026-05-07 10:32 | 6.29343 | 83.32116 | 38765 ft | 451 kts | 104° |
| 2026-05-07 10:33 | 6.27791 | 83.38204 | 38765 ft | 452 kts | 103° |
| 2026-05-07 10:33 | 6.26227 | 83.44334 | 38767 ft | 451 kts | 104° |
| 2026-05-07 10:34 | 6.24676 | 83.50414 | 38765 ft | 451 kts | 104° |
| 2026-05-07 10:34 | 6.23120 | 83.56512 | 38763 ft | 451 kts | 104° |
| 2026-05-07 10:35 | 6.21572 | 83.62572 | 38765 ft | 451 kts | 104° |
| 2026-05-07 10:35 | 6.20003 | 83.68707 | 38764 ft | 451 kts | 104° |
| 2026-05-07 10:36 | 6.18453 | 83.74771 | 38763 ft | 451 kts | 104° |
| 2026-05-07 10:36 | 6.16890 | 83.80884 | 38759 ft | 451 kts | 104° |
| 2026-05-07 10:37 | 6.15335 | 83.86959 | 38756 ft | 451 kts | 104° |
| 2026-05-07 10:37 | 6.13774 | 83.93055 | 38750 ft | 451 kts | 104° |
| 2026-05-07 10:38 | 6.12214 | 83.99145 | 38745 ft | 451 kts | 104° |
| 2026-05-07 10:38 | 6.10649 | 84.05247 | 38745 ft | 451 kts | 104° |
| 2026-05-07 10:39 | 6.09088 | 84.11324 | 38744 ft | 450 kts | 104° |
| 2026-05-07 10:39 | 6.07527 | 84.17403 | 38745 ft | 451 kts | 104° |
| 2026-05-07 10:40 | 6.05962 | 84.23495 | 38746 ft | 450 kts | 104° |
| 2026-05-07 10:40 | 6.04398 | 84.29575 | 38749 ft | 450 kts | 104° |
| 2026-05-07 10:41 | 6.02837 | 84.35646 | 38753 ft | 450 kts | 104° |
| 2026-05-07 10:41 | 6.01271 | 84.41737 | 38761 ft | 450 kts | 104° |
| 2026-05-07 10:42 | 5.99718 | 84.47772 | 38764 ft | 450 kts | 104° |
| 2026-05-07 10:42 | 5.98148 | 84.53868 | 38764 ft | 450 kts | 104° |
| 2026-05-07 10:43 | 5.96583 | 84.59944 | 38765 ft | 449 kts | 104° |
| 2026-05-07 10:43 | 5.95029 | 84.65974 | 38765 ft | 449 kts | 104° |
| 2026-05-07 10:44 | 5.93471 | 84.72015 | 38765 ft | 448 kts | 104° |
| 2026-05-07 10:44 | 5.91910 | 84.78065 | 38765 ft | 448 kts | 104° |
| 2026-05-07 10:45 | 5.90346 | 84.84126 | 38765 ft | 449 kts | 104° |
| 2026-05-07 10:45 | 5.88782 | 84.90183 | 38765 ft | 448 kts | 104° |
| 2026-05-07 10:46 | 5.87225 | 84.96207 | 38765 ft | 447 kts | 104° |
| 2026-05-07 10:46 | 5.85660 | 85.02266 | 38765 ft | 447 kts | 104° |
| 2026-05-07 10:47 | 5.84109 | 85.08263 | 38765 ft | 446 kts | 104° |
| 2026-05-07 10:47 | 5.82547 | 85.14298 | 38765 ft | 447 kts | 104° |
| 2026-05-07 10:48 | 5.80990 | 85.20316 | 38765 ft | 447 kts | 104° |
| 2026-05-07 10:48 | 5.79432 | 85.26329 | 38765 ft | 446 kts | 104° |
| 2026-05-07 10:49 | 5.77872 | 85.32351 | 38765 ft | 445 kts | 104° |
| 2026-05-07 10:49 | 5.76313 | 85.38368 | 38765 ft | 445 kts | 104° |
| 2026-05-07 10:50 | 5.74760 | 85.44355 | 38762 ft | 445 kts | 104° |
| 2026-05-07 10:50 | 5.73206 | 85.50346 | 38758 ft | 445 kts | 104° |
| 2026-05-07 10:51 | 5.71650 | 85.56342 | 38755 ft | 445 kts | 104° |
| 2026-05-07 10:51 | 5.70096 | 85.62324 | 38757 ft | 445 kts | 104° |
| 2026-05-07 10:52 | 5.68538 | 85.68323 | 38759 ft | 444 kts | 105° |
| 2026-05-07 10:52 | 5.66985 | 85.74296 | 38763 ft | 444 kts | 104° |
| 2026-05-07 10:53 | 5.65429 | 85.80280 | 38765 ft | 443 kts | 105° |
| 2026-05-07 10:53 | 5.63886 | 85.86213 | 38765 ft | 442 kts | 105° |
| 2026-05-07 10:54 | 5.62327 | 85.92203 | 38765 ft | 442 kts | 105° |
| 2026-05-07 10:54 | 5.60776 | 85.98162 | 38764 ft | 443 kts | 105° |
| 2026-05-07 10:55 | 5.59219 | 86.04135 | 38765 ft | 443 kts | 105° |
| 2026-05-07 10:55 | 5.57672 | 86.10069 | 38765 ft | 443 kts | 105° |
| 2026-05-07 10:56 | 5.56110 | 86.16064 | 38764 ft | 442 kts | 105° |
| 2026-05-07 10:56 | 5.54556 | 86.22025 | 38764 ft | 443 kts | 105° |
| 2026-05-07 10:57 | 5.53003 | 86.27969 | 38764 ft | 443 kts | 105° |
| 2026-05-07 10:57 | 5.51444 | 86.33942 | 38764 ft | 444 kts | 105° |
| 2026-05-07 10:58 | 5.49877 | 86.39945 | 38765 ft | 444 kts | 104° |
| 2026-05-07 10:58 | 5.48323 | 86.45892 | 38764 ft | 443 kts | 105° |
| 2026-05-07 10:59 | 5.46758 | 86.51875 | 38764 ft | 443 kts | 105° |
| 2026-05-07 10:59 | 5.45193 | 86.57860 | 38764 ft | 443 kts | 105° |
| 2026-05-07 11:00 | 5.43630 | 86.63837 | 38764 ft | 444 kts | 104° |
| 2026-05-07 11:00 | 5.42064 | 86.69820 | 38765 ft | 444 kts | 105° |
| 2026-05-07 11:01 | 5.40492 | 86.75822 | 38765 ft | 445 kts | 105° |
| 2026-05-07 11:01 | 5.38918 | 86.81830 | 38765 ft | 445 kts | 104° |
| 2026-05-07 11:02 | 5.37356 | 86.87791 | 38764 ft | 444 kts | 105° |
| 2026-05-07 11:02 | 5.35788 | 86.93777 | 38765 ft | 445 kts | 105° |
| 2026-05-07 11:03 | 5.34210 | 86.99794 | 38765 ft | 445 kts | 105° |
| 2026-05-07 11:03 | 5.32646 | 87.05752 | 38765 ft | 445 kts | 105° |
| 2026-05-07 11:04 | 5.31060 | 87.11787 | 38766 ft | 445 kts | 104° |
| 2026-05-07 11:04 | 5.29490 | 87.17766 | 38770 ft | 445 kts | 104° |
| 2026-05-07 11:05 | 5.27919 | 87.23747 | 38772 ft | 445 kts | 104° |
| 2026-05-07 11:05 | 5.26338 | 87.29764 | 38772 ft | 446 kts | 104° |
| 2026-05-07 11:06 | 5.24762 | 87.35760 | 38772 ft | 446 kts | 104° |
| 2026-05-07 11:06 | 5.23180 | 87.41774 | 38771 ft | 446 kts | 104° |
| 2026-05-07 11:07 | 5.21589 | 87.47817 | 38771 ft | 446 kts | 104° |
| 2026-05-07 11:07 | 5.20009 | 87.53820 | 38769 ft | 446 kts | 104° |
| 2026-05-07 11:08 | 5.18433 | 87.59804 | 38766 ft | 446 kts | 104° |
| 2026-05-07 11:08 | 5.16843 | 87.65837 | 38766 ft | 447 kts | 104° |
| 2026-05-07 11:09 | 5.15257 | 87.71853 | 38765 ft | 446 kts | 104° |
| 2026-05-07 11:09 | 5.13677 | 87.77850 | 38764 ft | 447 kts | 104° |
| 2026-05-07 11:10 | 5.12091 | 87.83858 | 38765 ft | 447 kts | 104° |
| 2026-05-07 11:10 | 5.10496 | 87.89899 | 38765 ft | 447 kts | 104° |
| 2026-05-07 11:11 | 5.08913 | 87.95899 | 38765 ft | 447 kts | 104° |
| 2026-05-07 11:11 | 5.07310 | 88.01926 | 38765 ft | 447 kts | 105° |
| 2026-05-07 11:12 | 5.05651 | 88.07913 | 38765 ft | 447 kts | 105° |
| 2026-05-07 11:12 | 5.03977 | 88.13937 | 38765 ft | 447 kts | 105° |
| 2026-05-07 11:13 | 5.02316 | 88.19920 | 38764 ft | 447 kts | 105° |
| 2026-05-07 11:13 | 5.00649 | 88.25931 | 38764 ft | 447 kts | 105° |
| 2026-05-07 11:14 | 4.98989 | 88.31921 | 38764 ft | 447 kts | 105° |
| 2026-05-07 11:14 | 4.97324 | 88.37924 | 38764 ft | 448 kts | 105° |
| 2026-05-07 11:15 | 4.95661 | 88.43926 | 38769 ft | 448 kts | 105° |
| 2026-05-07 11:15 | 4.93986 | 88.49966 | 38779 ft | 448 kts | 105° |
| 2026-05-07 11:16 | 4.92325 | 88.55949 | 38784 ft | 447 kts | 105° |
| 2026-05-07 11:16 | 4.90660 | 88.61948 | 38784 ft | 448 kts | 105° |
| 2026-05-07 11:17 | 4.88987 | 88.67966 | 38786 ft | 448 kts | 105° |
| 2026-05-07 11:17 | 4.87324 | 88.73949 | 38785 ft | 448 kts | 105° |
| 2026-05-07 11:18 | 4.85659 | 88.79941 | 38785 ft | 448 kts | 105° |
| 2026-05-07 11:18 | 4.83980 | 88.85980 | 38784 ft | 447 kts | 105° |
| 2026-05-07 11:19 | 4.82313 | 88.91977 | 38781 ft | 448 kts | 105° |
| 2026-05-07 11:19 | 4.80647 | 88.97966 | 38770 ft | 447 kts | 105° |
| 2026-05-07 11:20 | 4.78985 | 89.03936 | 38766 ft | 448 kts | 105° |
| 2026-05-07 11:20 | 4.77313 | 89.09937 | 38767 ft | 447 kts | 105° |
| 2026-05-07 11:21 | 4.75637 | 89.15951 | 38766 ft | 447 kts | 105° |
| 2026-05-07 11:21 | 4.73967 | 89.21942 | 38766 ft | 447 kts | 105° |
| 2026-05-07 11:22 | 4.72299 | 89.27927 | 38765 ft | 446 kts | 105° |
| 2026-05-07 11:22 | 4.70627 | 89.33924 | 38765 ft | 447 kts | 105° |
| 2026-05-07 11:23 | 4.68952 | 89.39929 | 38765 ft | 447 kts | 105° |
| 2026-05-07 11:23 | 4.67288 | 89.45889 | 38765 ft | 447 kts | 105° |
| 2026-05-07 11:24 | 4.65618 | 89.51874 | 38765 ft | 447 kts | 105° |
| 2026-05-07 11:24 | 4.63939 | 89.57885 | 38764 ft | 447 kts | 105° |
| 2026-05-07 11:25 | 4.62262 | 89.63888 | 38765 ft | 447 kts | 105° |
| 2026-05-07 11:25 | 4.60582 | 89.69900 | 38766 ft | 447 kts | 105° |
| 2026-05-07 11:26 | 4.58910 | 89.75880 | 38770 ft | 447 kts | 105° |
| 2026-05-07 11:26 | 4.57238 | 89.81863 | 38780 ft | 447 kts | 105° |
| 2026-05-07 11:27 | 4.55561 | 89.87856 | 38784 ft | 447 kts | 105° |
| 2026-05-07 11:27 | 4.53885 | 89.93844 | 38785 ft | 448 kts | 105° |
| 2026-05-07 11:28 | 4.52203 | 89.99851 | 38785 ft | 448 kts | 105° |
| 2026-05-07 11:28 | 4.50520 | 90.05860 | 38784 ft | 448 kts | 105° |
| 2026-05-07 11:29 | 4.48835 | 90.11877 | 38783 ft | 448 kts | 105° |
| 2026-05-07 11:29 | 4.47160 | 90.17857 | 38785 ft | 448 kts | 105° |
| 2026-05-07 11:30 | 4.45476 | 90.23862 | 38783 ft | 448 kts | 105° |
| 2026-05-07 11:30 | 4.43789 | 90.29878 | 38785 ft | 449 kts | 105° |
| 2026-05-07 11:31 | 4.42096 | 90.35911 | 38786 ft | 449 kts | 105° |
| 2026-05-07 11:31 | 4.40444 | 90.41904 | 38788 ft | 449 kts | 104° |
| 2026-05-07 11:32 | 4.38176 | 90.51051 | 38785 ft | 450 kts | 104° |
| 2026-05-07 11:33 | 4.36679 | 90.57087 | 38785 ft | 450 kts | 104° |
| 2026-05-07 11:33 | 4.35159 | 90.63184 | 38785 ft | 450 kts | 104° |
| 2026-05-07 11:34 | 4.33634 | 90.69288 | 38785 ft | 450 kts | 104° |
| 2026-05-07 11:34 | 4.32112 | 90.75368 | 38782 ft | 451 kts | 104° |
| 2026-05-07 11:35 | 4.30593 | 90.81438 | 38780 ft | 452 kts | 104° |
| 2026-05-07 11:35 | 4.29061 | 90.87550 | 38774 ft | 452 kts | 104° |
| 2026-05-07 11:36 | 4.27520 | 90.93699 | 38767 ft | 452 kts | 104° |
| 2026-05-07 11:36 | 4.25991 | 90.99805 | 38765 ft | 452 kts | 104° |
| 2026-05-07 11:37 | 4.24465 | 91.05895 | 38768 ft | 452 kts | 104° |
| 2026-05-07 11:37 | 4.22937 | 91.11989 | 38777 ft | 452 kts | 104° |
| 2026-05-07 11:38 | 4.21404 | 91.18097 | 38785 ft | 453 kts | 104° |
| 2026-05-07 11:38 | 4.19869 | 91.24210 | 38788 ft | 452 kts | 104° |
| 2026-05-07 11:39 | 4.18344 | 91.30281 | 38790 ft | 452 kts | 104° |
| 2026-05-07 11:39 | 4.16811 | 91.36387 | 38788 ft | 451 kts | 104° |
| 2026-05-07 11:40 | 4.15282 | 91.42472 | 38786 ft | 451 kts | 104° |
| 2026-05-07 11:40 | 4.13748 | 91.48583 | 38785 ft | 451 kts | 104° |
| 2026-05-07 11:41 | 4.12213 | 91.54686 | 38786 ft | 451 kts | 104° |
| 2026-05-07 11:41 | 4.10685 | 91.60763 | 38786 ft | 452 kts | 104° |
| 2026-05-07 11:42 | 4.09152 | 91.66857 | 38786 ft | 452 kts | 104° |
| 2026-05-07 11:42 | 4.07625 | 91.72922 | 38786 ft | 451 kts | 104° |
| 2026-05-07 11:43 | 4.06093 | 91.79005 | 38786 ft | 451 kts | 104° |
| 2026-05-07 11:43 | 4.04558 | 91.85099 | 38786 ft | 451 kts | 104° |
| 2026-05-07 11:44 | 4.03032 | 91.91154 | 38786 ft | 451 kts | 104° |
| 2026-05-07 11:44 | 4.01496 | 91.97257 | 38786 ft | 452 kts | 104° |
| 2026-05-07 11:45 | 3.99955 | 92.03316 | 38786 ft | 452 kts | 104° |
| 2026-05-07 11:45 | 3.98369 | 92.09434 | 38786 ft | 452 kts | 104° |
| 2026-05-07 11:46 | 3.96795 | 92.15504 | 38786 ft | 451 kts | 104° |
| 2026-05-07 11:46 | 3.95226 | 92.21558 | 38786 ft | 451 kts | 104° |
| 2026-05-07 11:47 | 3.93652 | 92.27635 | 38786 ft | 451 kts | 104° |
| 2026-05-07 11:47 | 3.92081 | 92.33698 | 38786 ft | 451 kts | 104° |
| 2026-05-07 11:48 | 3.90519 | 92.39729 | 38787 ft | 451 kts | 104° |
| 2026-05-07 11:48 | 3.88940 | 92.45820 | 38797 ft | 451 kts | 104° |
| 2026-05-07 11:49 | 3.87368 | 92.51887 | 38805 ft | 450 kts | 104° |
| 2026-05-07 11:49 | 3.85803 | 92.57918 | 38806 ft | 450 kts | 104° |
| 2026-05-07 11:50 | 3.84236 | 92.63958 | 38807 ft | 450 kts | 104° |
| 2026-05-07 11:50 | 3.82661 | 92.70028 | 38807 ft | 450 kts | 104° |
| 2026-05-07 11:51 | 3.81093 | 92.76069 | 38807 ft | 449 kts | 104° |
| 2026-05-07 11:51 | 3.79525 | 92.82114 | 38806 ft | 449 kts | 104° |
| 2026-05-07 11:52 | 3.77949 | 92.88181 | 38806 ft | 449 kts | 104° |
| 2026-05-07 11:52 | 3.76379 | 92.94215 | 38806 ft | 449 kts | 104° |
| 2026-05-07 11:53 | 3.74805 | 93.00271 | 38805 ft | 450 kts | 104° |
| 2026-05-07 11:53 | 3.73241 | 93.06286 | 38799 ft | 449 kts | 104° |
| 2026-05-07 11:54 | 3.71675 | 93.12311 | 38794 ft | 449 kts | 104° |
| 2026-05-07 11:54 | 3.70101 | 93.18366 | 38794 ft | 450 kts | 104° |
| 2026-05-07 11:55 | 3.68529 | 93.24410 | 38795 ft | 450 kts | 104° |
| 2026-05-07 11:55 | 3.66954 | 93.30456 | 38796 ft | 449 kts | 104° |
| 2026-05-07 11:56 | 3.65384 | 93.36487 | 38799 ft | 449 kts | 104° |
| 2026-05-07 11:56 | 3.63816 | 93.42502 | 38796 ft | 450 kts | 104° |
| 2026-05-07 11:57 | 3.62240 | 93.48554 | 38794 ft | 450 kts | 104° |
| 2026-05-07 11:57 | 3.60661 | 93.54611 | 38795 ft | 450 kts | 104° |
| 2026-05-07 11:58 | 3.59089 | 93.60644 | 38795 ft | 450 kts | 104° |
| 2026-05-07 11:58 | 3.57512 | 93.66699 | 38797 ft | 449 kts | 104° |
| 2026-05-07 11:59 | 3.55936 | 93.72739 | 38796 ft | 449 kts | 105° |
| 2026-05-07 11:59 | 3.54360 | 93.78776 | 38791 ft | 449 kts | 105° |
| 2026-05-07 12:00 | 3.52783 | 93.84817 | 38787 ft | 450 kts | 104° |
| 2026-05-07 12:00 | 3.51213 | 93.90834 | 38798 ft | 450 kts | 105° |
| 2026-05-07 12:01 | 3.49627 | 93.96903 | 38806 ft | 450 kts | 105° |
| 2026-05-07 12:01 | 3.48048 | 94.02950 | 38808 ft | 449 kts | 104° |
| 2026-05-07 12:02 | 3.46479 | 94.08955 | 38806 ft | 449 kts | 105° |
| 2026-05-07 12:02 | 3.44896 | 94.15015 | 38804 ft | 449 kts | 104° |
| 2026-05-07 12:03 | 3.43321 | 94.21041 | 38804 ft | 450 kts | 105° |
| 2026-05-07 12:03 | 3.41743 | 94.27074 | 38803 ft | 449 kts | 105° |
| 2026-05-07 12:04 | 3.40164 | 94.33111 | 38804 ft | 449 kts | 105° |
| 2026-05-07 12:04 | 3.38582 | 94.39153 | 38805 ft | 448 kts | 105° |
| 2026-05-07 12:05 | 3.37002 | 94.45192 | 38801 ft | 448 kts | 104° |
| 2026-05-07 12:05 | 3.35428 | 94.51202 | 38803 ft | 447 kts | 104° |
| 2026-05-07 12:06 | 3.33842 | 94.57261 | 38805 ft | 448 kts | 104° |
| 2026-05-07 12:06 | 3.32271 | 94.63258 | 38802 ft | 447 kts | 104° |
| 2026-05-07 12:07 | 3.30690 | 94.69287 | 38805 ft | 447 kts | 104° |
| 2026-05-07 12:07 | 3.29110 | 94.75316 | 38802 ft | 446 kts | 104° |
| 2026-05-07 12:08 | 3.27843 | 94.81361 | 38803 ft | 446 kts | 98° |
| 2026-05-07 12:08 | 3.27202 | 94.87529 | 38802 ft | 446 kts | 93° |
| 2026-05-07 12:09 | 3.27200 | 94.93698 | 38804 ft | 445 kts | 87° |
| 2026-05-07 12:09 | 3.27586 | 94.99878 | 38805 ft | 446 kts | 86° |
| 2026-05-07 12:10 | 3.27988 | 95.06084 | 38807 ft | 446 kts | 86° |
| 2026-05-07 12:10 | 3.28388 | 95.12260 | 38806 ft | 446 kts | 86° |
| 2026-05-07 12:11 | 3.28785 | 95.18440 | 38806 ft | 446 kts | 86° |
| 2026-05-07 12:11 | 3.29179 | 95.24591 | 38805 ft | 446 kts | 86° |
| 2026-05-07 12:12 | 3.29574 | 95.30768 | 38808 ft | 446 kts | 86° |
| 2026-05-07 12:12 | 3.29970 | 95.36977 | 38810 ft | 446 kts | 86° |
| 2026-05-07 12:13 | 3.30366 | 95.43175 | 38813 ft | 447 kts | 86° |
| 2026-05-07 12:13 | 3.30761 | 95.49371 | 38813 ft | 447 kts | 86° |
| 2026-05-07 12:14 | 3.31155 | 95.55545 | 38813 ft | 447 kts | 86° |
| 2026-05-07 12:14 | 3.31552 | 95.61756 | 38814 ft | 447 kts | 86° |
| 2026-05-07 12:15 | 3.31946 | 95.67954 | 38821 ft | 446 kts | 86° |
| 2026-05-07 12:15 | 3.32338 | 95.74143 | 38822 ft | 447 kts | 86° |
| 2026-05-07 12:16 | 3.32731 | 95.80339 | 38823 ft | 447 kts | 86° |
| 2026-05-07 12:16 | 3.33121 | 95.86509 | 38816 ft | 448 kts | 86° |
| 2026-05-07 12:17 | 3.33516 | 95.92746 | 38812 ft | 449 kts | 86° |
| 2026-05-07 12:17 | 3.33909 | 95.98942 | 38809 ft | 448 kts | 86° |
| 2026-05-07 12:18 | 3.34301 | 96.05139 | 38807 ft | 447 kts | 86° |
| 2026-05-07 12:18 | 3.34692 | 96.11321 | 38808 ft | 448 kts | 86° |
| 2026-05-07 12:19 | 3.35082 | 96.17526 | 38812 ft | 448 kts | 86° |
| 2026-05-07 12:19 | 3.35472 | 96.23737 | 38812 ft | 448 kts | 86° |
| 2026-05-07 12:20 | 3.35862 | 96.29953 | 38812 ft | 449 kts | 86° |
| 2026-05-07 12:20 | 3.36253 | 96.36176 | 38816 ft | 449 kts | 86° |
| 2026-05-07 12:21 | 3.36642 | 96.42398 | 38825 ft | 449 kts | 86° |
| 2026-05-07 12:21 | 3.37030 | 96.48595 | 38824 ft | 449 kts | 86° |
| 2026-05-07 12:22 | 3.37439 | 96.54848 | 38827 ft | 449 kts | 86° |
| 2026-05-07 12:22 | 3.37845 | 96.61058 | 38831 ft | 449 kts | 86° |
| 2026-05-07 12:23 | 3.38448 | 96.67282 | 38269 ft | 449 kts | 78° |
| 2026-05-07 12:23 | 3.39161 | 96.70302 | 36758 ft | 456 kts | 76° |
| 2026-05-07 12:23 | 3.39964 | 96.73398 | 34848 ft | 465 kts | 76° |
| 2026-05-07 12:23 | 3.40782 | 96.76520 | 32928 ft | 472 kts | 76° |
| 2026-05-07 12:24 | 3.41596 | 96.79668 | 31247 ft | 475 kts | 76° |
| 2026-05-07 12:24 | 3.42401 | 96.82826 | 30239 ft | 463 kts | 76° |
| 2026-05-07 12:24 | 3.43166 | 96.85848 | 29722 ft | 444 kts | 76° |
| 2026-05-07 12:24 | 3.43907 | 96.88789 | 29322 ft | 432 kts | 76° |
| 2026-05-07 12:25 | 3.44633 | 96.91680 | 28918 ft | 423 kts | 76° |
| 2026-05-07 12:25 | 3.45346 | 96.94530 | 28532 ft | 417 kts | 76° |
| 2026-05-07 12:25 | 3.46044 | 96.97324 | 28144 ft | 417 kts | 76° |
| 2026-05-07 12:25 | 3.46747 | 97.00139 | 27744 ft | 415 kts | 76° |
| 2026-05-07 12:26 | 3.47442 | 97.02921 | 27382 ft | 411 kts | 76° |
| 2026-05-07 12:26 | 3.48135 | 97.05695 | 27048 ft | 407 kts | 76° |
| 2026-05-07 12:26 | 3.48809 | 97.08396 | 26730 ft | 402 kts | 76° |
| 2026-05-07 12:26 | 3.49487 | 97.11112 | 26388 ft | 399 kts | 76° |
| 2026-05-07 12:27 | 3.50153 | 97.13784 | 26047 ft | 395 kts | 76° |
| 2026-05-07 12:27 | 3.50808 | 97.16409 | 25725 ft | 391 kts | 76° |
| 2026-05-07 12:27 | 3.51471 | 97.19064 | 25405 ft | 387 kts | 76° |
| 2026-05-07 12:27 | 3.52114 | 97.21645 | 25090 ft | 384 kts | 76° |
| 2026-05-07 12:28 | 3.52758 | 97.24224 | 24786 ft | 380 kts | 76° |
| 2026-05-07 12:28 | 3.53396 | 97.26784 | 24472 ft | 376 kts | 76° |
| 2026-05-07 12:28 | 3.54019 | 97.29281 | 24177 ft | 372 kts | 77° |
| 2026-05-07 12:28 | 3.54645 | 97.31794 | 23862 ft | 369 kts | 77° |
| 2026-05-07 12:29 | 3.55263 | 97.34275 | 23553 ft | 366 kts | 77° |
| 2026-05-07 12:29 | 3.55869 | 97.36706 | 23284 ft | 363 kts | 77° |
| 2026-05-07 12:29 | 3.56476 | 97.39145 | 23018 ft | 360 kts | 77° |
| 2026-05-07 12:29 | 3.57079 | 97.41569 | 22674 ft | 359 kts | 77° |
| 2026-05-07 12:30 | 3.57682 | 97.43994 | 22333 ft | 358 kts | 77° |
| 2026-05-07 12:30 | 3.58284 | 97.46410 | 22013 ft | 356 kts | 77° |
| 2026-05-07 12:30 | 3.58881 | 97.48807 | 21676 ft | 355 kts | 76° |
| 2026-05-07 12:30 | 3.59477 | 97.51205 | 21328 ft | 354 kts | 76° |
| 2026-05-07 12:31 | 3.60071 | 97.53590 | 20973 ft | 353 kts | 76° |
| 2026-05-07 12:31 | 3.60657 | 97.55942 | 20609 ft | 352 kts | 76° |
| 2026-05-07 12:31 | 3.61253 | 97.58335 | 20245 ft | 351 kts | 76° |
| 2026-05-07 12:31 | 3.61843 | 97.60705 | 19902 ft | 350 kts | 76° |
| 2026-05-07 12:32 | 3.62435 | 97.63084 | 19550 ft | 348 kts | 76° |
| 2026-05-07 12:32 | 3.63024 | 97.65451 | 19184 ft | 347 kts | 76° |
| 2026-05-07 12:32 | 3.63604 | 97.67783 | 18807 ft | 347 kts | 76° |
| 2026-05-07 12:32 | 3.64189 | 97.70139 | 18438 ft | 346 kts | 76° |
| 2026-05-07 12:33 | 3.65357 | 97.74834 | 17703 ft | 344 kts | 76° |
| 2026-05-07 12:33 | 3.65937 | 97.77166 | 17325 ft | 344 kts | 76° |
| 2026-05-07 12:33 | 3.66513 | 97.79480 | 16953 ft | 343 kts | 76° |
| 2026-05-07 12:34 | 3.67081 | 97.81765 | 16575 ft | 342 kts | 76° |
| 2026-05-07 12:34 | 3.67656 | 97.84077 | 16189 ft | 341 kts | 76° |
| 2026-05-07 12:34 | 3.68227 | 97.86372 | 15818 ft | 340 kts | 76° |
| 2026-05-07 12:34 | 3.68800 | 97.88682 | 15434 ft | 339 kts | 77° |
| 2026-05-07 12:35 | 3.69369 | 97.90971 | 15061 ft | 338 kts | 77° |
| 2026-05-07 12:35 | 3.69933 | 97.93240 | 14693 ft | 336 kts | 77° |
| 2026-05-07 12:35 | 3.70490 | 97.95483 | 14328 ft | 335 kts | 77° |
| 2026-05-07 12:35 | 3.71050 | 97.97741 | 13951 ft | 334 kts | 77° |
| 2026-05-07 12:36 | 3.71610 | 97.99997 | 13577 ft | 332 kts | 77° |
| 2026-05-07 12:36 | 3.72170 | 98.02252 | 13213 ft | 331 kts | 77° |
| 2026-05-07 12:36 | 3.72714 | 98.04449 | 12852 ft | 330 kts | 77° |
| 2026-05-07 12:36 | 3.73272 | 98.06701 | 12460 ft | 329 kts | 77° |
| 2026-05-07 12:37 | 3.73821 | 98.08918 | 12084 ft | 328 kts | 77° |
| 2026-05-07 12:37 | 3.74365 | 98.11111 | 11709 ft | 328 kts | 77° |
| 2026-05-07 12:37 | 3.74913 | 98.13323 | 11339 ft | 326 kts | 77° |
| 2026-05-07 12:37 | 3.75455 | 98.15505 | 11090 ft | 321 kts | 77° |
| 2026-05-07 12:38 | 3.75983 | 98.17630 | 11059 ft | 308 kts | 77° |
| 2026-05-07 12:38 | 3.76213 | 98.19692 | 11036 ft | 294 kts | 96° |
| 2026-05-07 12:38 | 3.75631 | 98.21626 | 10860 ft | 289 kts | 117° |
| 2026-05-07 12:38 | 3.74617 | 98.23365 | 10540 ft | 289 kts | 120° |
| 2026-05-07 12:39 | 3.73581 | 98.25085 | 10218 ft | 286 kts | 120° |
| 2026-05-07 12:39 | 3.72560 | 98.26788 | 9915 ft | 283 kts | 120° |
| 2026-05-07 12:39 | 3.71568 | 98.28452 | 9632 ft | 279 kts | 120° |
| 2026-05-07 12:39 | 3.70579 | 98.30123 | 9352 ft | 275 kts | 120° |
| 2026-05-07 12:40 | 3.69619 | 98.31750 | 9068 ft | 271 kts | 120° |
| 2026-05-07 12:40 | 3.68668 | 98.33364 | 8818 ft | 267 kts | 120° |
| 2026-05-07 12:40 | 3.67702 | 98.35008 | 8363 ft | 280 kts | 120° |
| 2026-05-07 12:40 | 3.66711 | 98.36694 | 7707 ft | 287 kts | 120° |
| 2026-05-07 12:41 | 3.65696 | 98.38422 | 7157 ft | 288 kts | 120° |
| 2026-05-07 12:41 | 3.64685 | 98.40141 | 6466 ft | 289 kts | 120° |
| 2026-05-07 12:41 | 3.63675 | 98.41859 | 5925 ft | 283 kts | 120° |
| 2026-05-07 12:41 | 3.62694 | 98.43527 | 5783 ft | 272 kts | 120° |
| 2026-05-07 12:42 | 3.61737 | 98.45153 | 5669 ft | 272 kts | 120° |
| 2026-05-07 12:42 | 3.60786 | 98.46771 | 5549 ft | 271 kts | 120° |
| 2026-05-07 12:42 | 3.59827 | 98.48403 | 5430 ft | 271 kts | 120° |
| 2026-05-07 12:42 | 3.58875 | 98.50022 | 5312 ft | 270 kts | 120° |
| 2026-05-07 12:43 | 3.57923 | 98.51642 | 5191 ft | 270 kts | 120° |
| 2026-05-07 12:43 | 3.56959 | 98.53275 | 5065 ft | 270 kts | 121° |
| 2026-05-07 12:43 | 3.55881 | 98.54801 | 4938 ft | 269 kts | 128° |
| 2026-05-07 12:43 | 3.54625 | 98.56204 | 4809 ft | 269 kts | 133° |
| 2026-05-07 12:44 | 3.53326 | 98.57559 | 4649 ft | 269 kts | 133° |
| 2026-05-07 12:44 | 3.52007 | 98.58922 | 4429 ft | 268 kts | 133° |
| 2026-05-07 12:44 | 3.50717 | 98.60257 | 4186 ft | 267 kts | 133° |
| 2026-05-07 12:44 | 3.49417 | 98.61606 | 3938 ft | 267 kts | 133° |
| 2026-05-07 12:45 | 3.48126 | 98.62949 | 3690 ft | 266 kts | 133° |
| 2026-05-07 12:45 | 3.46855 | 98.64272 | 3440 ft | 266 kts | 133° |
| 2026-05-07 12:45 | 3.45776 | 98.65765 | 3166 ft | 264 kts | 110° |
| 2026-05-07 12:45 | 3.45545 | 98.67545 | 3048 ft | 256 kts | 81° |
| 2026-05-07 12:46 | 3.46128 | 98.69193 | 3041 ft | 245 kts | 59° |
| 2026-05-07 12:46 | 3.47136 | 98.70523 | 3037 ft | 235 kts | 47° |
| 2026-05-07 12:46 | 3.48271 | 98.71664 | 3026 ft | 225 kts | 44° |
| 2026-05-07 12:46 | 3.49372 | 98.72714 | 2986 ft | 213 kts | 45° |
| 2026-05-07 12:47 | 3.50406 | 98.73714 | 3002 ft | 196 kts | 45° |
| 2026-05-07 12:47 | 3.51343 | 98.74638 | 2947 ft | 184 kts | 46° |
| 2026-05-07 12:47 | 3.52230 | 98.75523 | 2750 ft | 175 kts | 45° |
| 2026-05-07 12:47 | 3.53074 | 98.76369 | 2533 ft | 169 kts | 45° |
| 2026-05-07 12:48 | 3.53894 | 98.77191 | 2314 ft | 164 kts | 45° |
| 2026-05-07 12:48 | 3.54689 | 98.77986 | 2101 ft | 159 kts | 45° |
| 2026-05-07 12:48 | 3.55463 | 98.78760 | 1898 ft | 153 kts | 45° |
| 2026-05-07 12:48 | 3.56201 | 98.79497 | 1707 ft | 147 kts | 46° |
| 2026-05-07 12:49 | 3.56915 | 98.80210 | 1525 ft | 143 kts | 45° |
| 2026-05-07 12:49 | 3.57621 | 98.80913 | 1354 ft | 142 kts | 45° |
| 2026-05-07 12:49 | 3.58325 | 98.81615 | 1180 ft | 141 kts | 45° |
| 2026-05-07 12:49 | 3.59015 | 98.82304 | 1006 ft | 141 kts | 45° |
| 2026-05-07 12:50 | 3.59713 | 98.82999 | 824 ft | 141 kts | 45° |
| 2026-05-07 12:50 | 3.60413 | 98.83697 | 637 ft | 140 kts | 45° |
| 2026-05-07 12:50 | 3.61104 | 98.84385 | 456 ft | 140 kts | 45° |
| 2026-05-07 12:50 | 3.61804 | 98.85076 | 270 ft | 139 kts | 45° |
| 2026-05-07 12:51 | 3.62488 | 98.85757 | 77 ft | 137 kts | 45° |
| 2026-05-07 12:51 | 3.63125 | 98.86398 | 41 ft | 117 kts | 45° |
| 2026-05-07 12:51 | 3.63575 | 98.86844 | 41 ft | 64 kts | 46° |
| 2026-05-07 12:51 | 3.63867 | 98.87138 | 41 ft | 59 kts | 45° |
| 2026-05-07 12:52 | 3.64085 | 98.87421 | 41 ft | 38 kts | 68° |
| 2026-05-07 12:52 | 3.64134 | 98.87585 | 41 ft | 17 kts | 72° |
| 2026-05-07 12:52 | 3.64139 | 98.87599 | 41 ft | 0 kts | 72° |
| 2026-05-07 12:52 | 3.64140 | 98.87602 | 41 ft | 1 kts | 72° |
| 2026-05-07 12:53 | 3.64145 | 98.87620 | 41 ft | 3 kts | 71° |
| 2026-05-07 12:53 | 3.64163 | 98.87660 | 41 ft | 8 kts | 63° |
| 2026-05-07 12:53 | 3.64196 | 98.87711 | 41 ft | 9 kts | 51° |
| 2026-05-07 12:53 | 3.64244 | 98.87762 | 41 ft | 10 kts | 46° |
| 2026-05-07 12:54 | 3.64291 | 98.87820 | 41 ft | 7 kts | 72° |
| 2026-05-07 12:54 | 3.64276 | 98.87872 | 41 ft | 8 kts | 112° |
| 2026-05-07 12:54 | 3.64282 | 98.87926 | 41 ft | 8 kts | 55° |
| 2026-05-07 12:54 | 3.64291 | 98.87960 | 41 ft | 4 kts | 97° |
| 2026-05-07 12:55 | 3.64274 | 98.87996 | 41 ft | 6 kts | 128° |
| 2026-05-07 12:55 | 3.64238 | 98.88033 | 41 ft | 8 kts | 134° |
| 2026-05-07 12:55 | 3.64193 | 98.88080 | 41 ft | 10 kts | 134° |
| 2026-05-07 12:55 | 3.64138 | 98.88128 | 41 ft | 10 kts | 155° |
| 2026-05-07 12:56 | 3.64073 | 98.88106 | 41 ft | 9 kts | 229° |
| 2026-05-07 12:56 | 3.64025 | 98.88059 | 41 ft | 10 kts | 225° |
| 2026-05-07 12:56 | 3.63971 | 98.88006 | 41 ft | 11 kts | 225° |
| 2026-05-07 12:56 | 3.63929 | 98.87945 | 41 ft | 5 kts | 253° |
| 2026-05-07 12:57 | 3.63904 | 98.87911 | 41 ft | 6 kts | 228° |
| 2026-05-07 12:57 | 3.63873 | 98.87878 | 41 ft | 4 kts | 225° |
| 2026-05-07 12:57 | 3.63867 | 98.87872 | 41 ft | 0 kts | 224° |